createdAt,value
2023-02-17T00:02:49.693Z,97626.28
2023-02-17T00:07:52.520Z,97627.66
2023-02-17T00:12:59.304Z,97626.56
2023-02-17T00:18:02.237Z,97628.19
2023-02-17T00:23:05.032Z,97623.03
2023-02-17T00:28:09.217Z,97625.50
2023-02-17T00:33:12.112Z,97630.09
2023-02-17T00:38:14.988Z,97629.53
2023-02-17T00:43:19.144Z,97633.31
2023-02-17T00:48:22.181Z,97639.53
2023-02-17T00:53:25.014Z,97641.44
2023-02-17T00:58:29.173Z,97634.13
2023-02-17T01:03:32.056Z,97632.25
2023-02-17T01:08:34.927Z,97636.34
2023-02-17T01:13:39.120Z,97639.84
2023-02-17T01:18:41.954Z,97643.91
2023-02-17T01:23:44.850Z,97634.13
2023-02-17T01:28:49.784Z,97642.78
2023-02-17T01:33:52.632Z,97639.22
2023-02-17T01:38:55.697Z,97620.47
2023-02-17T01:44:16.014Z,97636.28
2023-02-17T01:49:25.616Z,97636.81
2023-02-17T01:54:31.791Z,97631.41
2023-02-17T01:59:35.981Z,97629.22
2023-02-17T02:04:40.688Z,97628.38
2023-02-17T02:09:47.286Z,97634.03
2023-02-17T02:14:52.137Z,97628.88
2023-02-17T02:20:19.781Z,97620.47
2023-02-17T02:25:40.919Z,97614.31
2023-02-17T02:30:53.417Z,97614.88
2023-02-17T02:36:02.828Z,97622.72
2023-02-17T02:41:10.621Z,97626.50
2023-02-17T02:46:13.410Z,97619.44
2023-02-17T02:51:23.630Z,97628.63
2023-02-17T02:56:33.853Z,97623.19
2023-02-17T03:01:41.861Z,97619.56
2023-02-17T03:06:49.753Z,97608.00
2023-02-17T03:11:52.703Z,97615.66
2023-02-17T03:16:55.608Z,97612.63
2023-02-17T03:22:07.641Z,97615.06
2023-02-17T03:27:10.643Z,97616.41
2023-02-17T03:32:13.521Z,97610.97
2023-02-17T03:37:20.606Z,97612.63
2023-02-17T03:42:23.512Z,97616.97
2023-02-17T03:47:26.383Z,97619.69
2023-02-17T03:52:30.575Z,97620.75
2023-02-17T03:57:34.814Z,97618.03
2023-02-17T04:02:37.705Z,97619.91
2023-02-17T04:07:42.006Z,97622.38
2023-02-17T04:12:44.841Z,97622.63
2023-02-17T04:17:47.689Z,97628.06
2023-02-17T04:22:51.897Z,97629.69
2023-02-17T04:27:54.778Z,97637.34
2023-02-17T04:32:57.758Z,97645.47
2023-02-17T04:38:02.118Z,97647.13
2023-02-17T04:43:05.049Z,97637.34
2023-02-17T04:48:07.866Z,97639.47
2023-02-17T04:53:12.244Z,97638.41
2023-02-17T04:58:15.084Z,97639.47
2023-02-17T05:03:18.085Z,97641.38
2023-02-17T05:08:24.046Z,97642.19
2023-02-17T05:13:27.462Z,97635.44
2023-02-17T05:18:30.383Z,97630.28
2023-02-17T05:23:40.999Z,97626.19
2023-02-17T05:28:44.779Z,97630.78
2023-02-17T05:33:47.886Z,97632.06
2023-02-17T05:38:52.326Z,97632.69
2023-02-17T05:43:55.239Z,97636.91
2023-02-17T05:48:58.295Z,97633.97
2023-02-17T05:54:02.467Z,97634.31
2023-02-17T05:59:06.210Z,97638.09
2023-02-17T06:04:09.933Z,97637.47
2023-02-17T06:09:15.276Z,97636.69
2023-02-17T06:14:18.107Z,97633.13
2023-02-17T06:19:21.007Z,97636.69
2023-02-17T06:24:25.800Z,97643.16
2023-02-17T06:29:28.915Z,97640.72
2023-02-17T06:34:31.744Z,97649.75
2023-02-17T06:39:35.877Z,97651.88
2023-02-17T06:44:38.714Z,97646.69
2023-02-17T06:49:41.789Z,97658.38
2023-02-17T06:54:47.230Z,97670.28
2023-02-17T06:59:50.090Z,97681.13
2023-02-17T07:04:53.190Z,97674.66
2023-02-17T07:09:57.366Z,97680.44
2023-02-17T07:15:00.215Z,97681.81
2023-02-17T07:20:03.025Z,97685.94
2023-02-17T07:25:08.165Z,97686.97
2023-02-17T07:30:11.759Z,97685.09
2023-02-17T07:35:14.698Z,97690.44
2023-02-17T07:40:19.077Z,97702.44
2023-02-17T07:45:21.934Z,97706.19
2023-02-17T07:50:24.821Z,97709.75
2023-02-17T07:55:28.992Z,97716.28
2023-02-17T08:00:32.062Z,97722.78
2023-02-17T08:05:35.035Z,97712.78
2023-02-17T08:10:57.281Z,97718.47
2023-02-17T08:16:00.341Z,97738.00
2023-02-17T08:21:03.327Z,97724.25
2023-02-17T08:26:08.192Z,97730.41
2023-02-17T08:31:17.088Z,97723.28
2023-02-17T08:36:23.240Z,97726.56
2023-02-17T08:41:30.039Z,97740.22
2023-02-17T08:46:33.630Z,97745.75
2023-02-17T08:51:36.927Z,97734.75
2023-02-17T08:56:42.309Z,97737.75
2023-02-17T09:01:45.275Z,97733.47
2023-02-17T09:06:50.667Z,97739.44
2023-02-17T09:11:56.104Z,97751.06
2023-02-17T09:16:59.367Z,97746.66
2023-02-17T09:22:02.415Z,97762.34
2023-02-17T09:27:06.799Z,97752.75
2023-02-17T09:32:09.911Z,97753.44
2023-02-17T09:37:13.375Z,97758.34
2023-02-17T09:42:20.242Z,97754.09
2023-02-17T09:47:24.985Z,97759.03
2023-02-17T09:52:31.827Z,97761.75
2023-02-17T09:57:39.024Z,97765.56
2023-02-17T10:02:48.179Z,97776.25
2023-02-17T10:07:54.297Z,97763.28
2023-02-17T10:13:01.239Z,97774.47
2023-02-17T10:18:09.494Z,97773.69
2023-02-17T10:23:20.262Z,97769.31
2023-02-17T10:28:36.012Z,97770.41
2023-02-17T10:33:42.860Z,97775.94
2023-02-17T10:38:51.367Z,97778.28
2023-02-17T10:43:57.010Z,97773.56
2023-02-17T10:49:00.446Z,97776.47
2023-02-17T10:54:05.562Z,97762.09
2023-02-17T10:59:16.151Z,97757.13
2023-02-17T11:04:19.027Z,97750.28
2023-02-17T11:09:28.563Z,97752.34
2023-02-17T11:14:34.118Z,97734.66
2023-02-17T11:19:37.014Z,97728.97
2023-02-17T11:24:39.938Z,97729.81
2023-02-17T11:29:44.088Z,97726.28
2023-02-17T11:34:58.270Z,97705.88
2023-02-17T11:40:01.222Z,97703.97
2023-02-17T11:45:17.810Z,97691.97
2023-02-17T11:50:40.959Z,97695.22
2023-02-17T11:55:52.057Z,97671.25
2023-02-17T12:01:01.431Z,97673.16
2023-02-17T12:06:09.928Z,97666.38
2023-02-17T12:11:21.091Z,97655.03
2023-02-17T12:16:36.472Z,97643.91
2023-02-17T12:21:45.454Z,97631.66
2023-02-17T12:26:49.672Z,97625.38
2023-02-17T12:32:12.104Z,97618.31
2023-02-17T12:37:19.938Z,97615.06
2023-02-17T12:42:26.297Z,97602.88
2023-02-17T12:47:50.264Z,97605.28
2023-02-17T12:52:56.014Z,97603.16
2023-02-17T12:58:01.372Z,97599.63
2023-02-17T13:03:06.821Z,97597.44
2023-02-17T13:08:14.843Z,97602.09
2023-02-17T13:13:28.367Z,97599.63
2023-02-17T13:18:34.270Z,97592.59
2023-02-17T13:23:39.328Z,97586.91
2023-02-17T13:28:42.527Z,97587.22
2023-02-17T13:33:49.471Z,97580.44
2023-02-17T13:38:59.798Z,97582.59
2023-02-17T13:44:19.685Z,97581.50
2023-02-17T13:49:27.623Z,97577.16
2023-02-17T13:54:30.471Z,97568.19
2023-02-17T13:59:37.026Z,97563.81
2023-02-17T14:04:41.533Z,97563.56
2023-02-17T14:09:44.526Z,97562.78
2023-02-17T14:14:48.304Z,97573.88
2023-02-17T14:19:52.493Z,97570.63
2023-02-17T14:25:03.338Z,97564.34
2023-02-17T14:30:07.902Z,97568.16
2023-02-17T14:35:22.009Z,97575.47
2023-02-17T14:40:26.504Z,97581.72
2023-02-17T14:45:29.338Z,97570.63
2023-02-17T14:50:35.388Z,97571.72
2023-02-17T14:55:44.710Z,97570.63
2023-02-17T15:00:47.849Z,97568.75
2023-02-17T15:05:52.330Z,97567.66
2023-02-17T15:10:56.233Z,97560.09
2023-02-17T15:15:59.084Z,97563.88
2023-02-17T15:21:03.267Z,97563.38
2023-02-17T15:26:07.119Z,97564.69
2023-02-17T15:31:12.211Z,97569.84
2023-02-17T15:36:17.854Z,97571.97
2023-02-17T15:41:22.897Z,97573.06
2023-02-17T15:46:33.060Z,97586.03
2023-02-17T15:51:37.360Z,97585.72
2023-02-17T15:56:44.973Z,97586.03
2023-02-17T16:01:47.821Z,97584.94
2023-02-17T16:06:52.006Z,97577.72
2023-02-17T16:11:55.928Z,97592.06
2023-02-17T16:16:58.755Z,97591.41
2023-02-17T16:22:02.913Z,97590.34
2023-02-17T16:27:08.246Z,97594.28
2023-02-17T16:32:12.558Z,97597.44
2023-02-17T16:37:17.922Z,97596.84
2023-02-17T16:42:20.735Z,97601.97
2023-02-17T16:47:24.006Z,97610.91
2023-02-17T16:52:28.638Z,97619.00
2023-02-17T16:57:31.469Z,97626.81
2023-02-17T17:02:34.384Z,97620.22
2023-02-17T17:07:38.985Z,97625.34
2023-02-17T17:12:41.851Z,97627.75
2023-02-17T17:17:46.902Z,97632.34
2023-02-17T17:22:51.440Z,97625.28
2023-02-17T17:27:54.354Z,97625.03
2023-02-17T17:32:58.479Z,97637.28
2023-02-17T17:38:02.650Z,97642.97
2023-02-17T17:43:05.482Z,97643.22
2023-02-17T17:48:09.933Z,97645.94
2023-02-17T17:53:14.103Z,97653.53
2023-02-17T17:58:17.250Z,97656.22
2023-02-17T18:03:20.203Z,97655.09
2023-02-17T18:08:24.611Z,97661.59
2023-02-17T18:13:27.853Z,97663.47
2023-02-17T18:18:31.650Z,97679.53
2023-02-17T18:23:35.954Z,97669.25
2023-02-17T18:28:38.782Z,97667.88
2023-02-17T18:33:43.838Z,97670.81
2023-02-17T18:38:48.540Z,97668.91
2023-02-17T18:43:51.990Z,97671.91
2023-02-17T18:48:55.155Z,97677.31
2023-02-17T18:54:00.957Z,97680.03
2023-02-17T18:59:04.134Z,97683.31
2023-02-17T19:04:07.646Z,97690.06
2023-02-17T19:09:12.167Z,97676.75
2023-02-17T19:14:15.024Z,97680.28
2023-02-17T19:19:18.216Z,97675.94
2023-02-17T19:24:22.392Z,97689.75
2023-02-17T19:29:25.213Z,97687.03
2023-02-17T19:34:28.445Z,97683.25
2023-02-17T19:39:33.024Z,97686.56
2023-02-17T19:44:35.838Z,97684.63
2023-02-17T19:49:38.966Z,97685.72
2023-02-17T19:54:43.812Z,97687.59
2023-02-17T19:59:46.693Z,97694.94
2023-02-17T20:04:49.522Z,97690.84
2023-02-17T20:09:53.691Z,97685.41
2023-02-17T20:14:57.235Z,97692.47
2023-02-17T20:20:00.402Z,97696.81
2023-02-17T20:25:05.017Z,97701.16
2023-02-17T20:30:09.008Z,97699.03
2023-02-17T20:35:13.697Z,97702.84
2023-02-17T20:40:18.176Z,97704.72
2023-02-17T20:45:21.022Z,97698.72
2023-02-17T20:50:23.917Z,97701.69
2023-02-17T20:55:29.806Z,97708.50
2023-02-17T21:00:32.835Z,97712.88
2023-02-17T21:05:36.900Z,97711.22
2023-02-17T21:10:41.074Z,97716.13
2023-02-17T21:15:43.906Z,97719.94
2023-02-17T21:20:46.783Z,97719.63
2023-02-17T21:25:50.966Z,97714.44
2023-02-17T21:30:54.489Z,97712.53
2023-02-17T21:35:57.566Z,97713.09
2023-02-17T21:41:08.069Z,97717.47
2023-02-17T21:46:11.834Z,97715.81
2023-02-17T21:51:14.766Z,97712.31
2023-02-17T21:56:19.920Z,97719.84
2023-02-17T22:01:24.100Z,97724.47
2023-02-17T22:06:28.795Z,97719.06
2023-02-17T22:11:34.747Z,97710.91
2023-02-17T22:16:38.519Z,97717.72
2023-02-17T22:21:41.650Z,97723.97
2023-02-17T22:26:45.849Z,97730.22
2023-02-17T22:31:50.251Z,97732.09
2023-02-17T22:36:53.220Z,97735.91
2023-02-17T22:41:57.503Z,97738.06
2023-02-17T22:47:00.355Z,97725.28
2023-02-17T22:52:03.587Z,97717.16
2023-02-17T22:57:08.086Z,97719.84
2023-02-17T23:02:10.926Z,97713.63
2023-02-17T23:07:14.253Z,97710.91
2023-02-17T23:12:18.462Z,97711.97
2023-02-17T23:17:21.279Z,97720.94
2023-02-17T23:22:24.150Z,97710.06
2023-02-17T23:27:28.315Z,97716.59
2023-02-17T23:32:31.248Z,97713.88
2023-02-17T23:37:34.177Z,97717.38
2023-02-17T23:42:38.501Z,97717.38
2023-02-17T23:47:41.323Z,97717.38
2023-02-17T23:52:45.569Z,97713.34
2023-02-17T23:57:49.726Z,97719.06
